createdAt,value
2019-01-23T00:00:49.212Z,-0.17
2019-01-23T00:03:15.112Z,-0.24
2019-01-23T00:05:40.981Z,-0.20
2019-01-23T00:08:06.897Z,-0.09
2019-01-23T00:10:32.821Z,-0.24
2019-01-23T00:12:58.702Z,-0.19
2019-01-23T00:15:24.563Z,-0.18
2019-01-23T00:17:50.446Z,-0.21
2019-01-23T00:20:16.362Z,-0.36
2019-01-23T00:22:42.221Z,-0.35
2019-01-23T00:25:12.160Z,-0.41
2019-01-23T00:27:38.053Z,-0.43
2019-01-23T00:30:09.851Z,-0.49
2019-01-23T00:32:35.774Z,-0.49
2019-01-23T00:35:01.636Z,-0.43
2019-01-23T00:37:27.501Z,-0.48
2019-01-23T00:39:53.422Z,-0.49
2019-01-23T00:42:19.313Z,-0.52
2019-01-23T00:44:45.167Z,-0.54
2019-01-23T00:47:11.038Z,-0.51
2019-01-23T00:49:37.075Z,-0.51
2019-01-23T00:52:03.058Z,-0.51
2019-01-23T00:54:29.029Z,-0.56
2019-01-23T00:56:54.929Z,-0.42
2019-01-23T00:59:20.828Z,-0.50
2019-01-23T01:01:46.727Z,-0.62
2019-01-23T01:04:12.593Z,-0.56
2019-01-23T01:06:38.488Z,-0.64
2019-01-23T01:09:07.001Z,-0.62
2019-01-23T01:11:32.874Z,-0.53
2019-01-23T01:13:58.758Z,-0.59
2019-01-23T01:16:24.674Z,-0.49
2019-01-23T01:18:50.528Z,-0.53
2019-01-23T01:21:16.524Z,-0.53
2019-01-23T01:23:42.448Z,-0.55
2019-01-23T01:26:08.504Z,-0.59
2019-01-23T01:28:34.389Z,-0.65
2019-01-23T01:31:00.331Z,-0.70
2019-01-23T01:33:26.211Z,-0.66
2019-01-23T01:35:52.078Z,-0.68
2019-01-23T01:38:17.959Z,-0.63
2019-01-23T01:40:43.965Z,-0.57
2019-01-23T01:43:09.877Z,-0.49
2019-01-23T01:45:35.733Z,-0.54
2019-01-23T01:48:01.689Z,-0.53
2019-01-23T01:50:27.573Z,-0.60
2019-01-23T01:52:53.438Z,-0.62
2019-01-23T01:55:19.306Z,-0.63
2019-01-23T01:57:45.323Z,-0.65
2019-01-23T02:00:19.298Z,-0.55
2019-01-23T02:02:45.184Z,-0.65
2019-01-23T02:05:11.053Z,-0.71
2019-01-23T02:07:36.948Z,-0.72
2019-01-23T02:10:06.485Z,-0.77
2019-01-23T02:12:32.368Z,-0.76
2019-01-23T02:14:58.218Z,-0.76
2019-01-23T02:17:24.458Z,-0.79
2019-01-23T02:19:50.353Z,-0.74
2019-01-23T02:22:16.233Z,-0.75
2019-01-23T02:24:42.128Z,-0.67
2019-01-23T02:27:08.065Z,-0.75
2019-01-23T02:29:33.950Z,-0.75
2019-01-23T02:31:59.877Z,-0.77
2019-01-23T02:34:25.744Z,-0.79
2019-01-23T02:36:51.768Z,-0.72
2019-01-23T02:39:17.691Z,-0.70
2019-01-23T02:41:43.563Z,-0.62
2019-01-23T02:44:09.478Z,-0.63
2019-01-23T02:46:35.471Z,-0.55
2019-01-23T02:49:01.385Z,-0.46
2019-01-23T02:51:27.313Z,-0.40
2019-01-23T02:53:53.139Z,-0.30
2019-01-23T02:56:19.039Z,-0.36
2019-01-23T02:58:44.933Z,-0.30
2019-01-23T03:01:10.797Z,-0.33
2019-01-23T03:03:36.774Z,-0.29
2019-01-23T03:06:02.743Z,-0.24
2019-01-23T03:08:28.604Z,-0.19
2019-01-23T03:10:54.651Z,-0.30
2019-01-23T03:13:20.632Z,-0.47
2019-01-23T03:15:46.531Z,-0.38
2019-01-23T03:18:12.434Z,-0.42
2019-01-23T03:20:38.334Z,-0.42
2019-01-23T03:23:04.198Z,-0.28
2019-01-23T03:25:30.216Z,-0.30
2019-01-23T03:27:59.739Z,-0.26
2019-01-23T03:30:25.764Z,-0.36
2019-01-23T03:32:51.647Z,-0.29
2019-01-23T03:35:17.560Z,-0.24
2019-01-23T03:37:43.444Z,-0.15
2019-01-23T03:40:15.138Z,-0.14
2019-01-23T03:42:41.029Z,-0.17
2019-01-23T03:45:09.195Z,-0.11
2019-01-23T03:47:35.116Z,-0.06
2019-01-23T03:50:01.129Z,-0.07
2019-01-23T03:52:27.057Z,0.06
2019-01-23T03:54:53.138Z,0.04
2019-01-23T03:57:19.188Z,0.05
2019-01-23T03:59:45.165Z,0.00
2019-01-23T04:02:11.055Z,0.14
2019-01-23T04:04:36.954Z,0.00
2019-01-23T04:07:02.881Z,0.02
2019-01-23T04:09:28.744Z,0.18
2019-01-23T04:11:54.630Z,0.27
2019-01-23T04:14:20.536Z,0.31
2019-01-23T04:16:46.414Z,0.23
2019-01-23T04:19:12.325Z,0.33
2019-01-23T04:21:38.207Z,0.29
2019-01-23T04:24:04.075Z,0.24
2019-01-23T04:26:30.093Z,0.32
2019-01-23T04:28:56.106Z,0.32
2019-01-23T04:31:21.972Z,0.26
2019-01-23T04:33:47.848Z,0.32
2019-01-23T04:36:13.731Z,0.30
2019-01-23T04:38:39.722Z,0.33
2019-01-23T04:41:05.636Z,0.29
2019-01-23T04:43:31.594Z,0.29
2019-01-23T04:45:57.456Z,0.43
2019-01-23T04:48:23.335Z,0.40
2019-01-23T04:51:00.318Z,0.29
2019-01-23T04:53:36.879Z,0.27
2019-01-23T04:56:02.966Z,0.24
2019-01-23T04:58:28.870Z,0.26
2019-01-23T05:00:54.774Z,0.27
2019-01-23T05:03:20.656Z,0.36
2019-01-23T05:05:46.523Z,0.22
2019-01-23T05:08:12.404Z,0.35
2019-01-23T05:10:38.416Z,0.40
2019-01-23T05:13:04.390Z,0.43
2019-01-23T05:15:30.242Z,0.48
2019-01-23T05:17:56.124Z,0.47
2019-01-23T05:20:22.224Z,0.48
2019-01-23T05:22:48.204Z,0.39
2019-01-23T05:25:14.177Z,0.46
2019-01-23T05:27:40.316Z,0.57
2019-01-23T05:30:18.830Z,0.57
2019-01-23T05:32:44.743Z,0.49
2019-01-23T05:35:10.606Z,0.44
2019-01-23T05:37:36.573Z,0.46
2019-01-23T05:40:05.712Z,0.53
2019-01-23T05:42:31.651Z,0.52
2019-01-23T05:44:57.508Z,0.51
2019-01-23T05:47:23.380Z,0.50
2019-01-23T05:49:49.369Z,0.55
2019-01-23T05:52:15.241Z,0.64
2019-01-23T05:54:41.112Z,0.74
2019-01-23T05:57:07.002Z,0.73
2019-01-23T05:59:32.954Z,0.62
2019-01-23T06:01:58.986Z,0.62
2019-01-23T06:04:24.847Z,0.70
2019-01-23T06:06:50.736Z,0.66
2019-01-23T06:09:16.640Z,0.80
2019-01-23T06:11:42.529Z,0.80
2019-01-23T06:14:08.377Z,0.85
2019-01-23T06:16:34.274Z,0.90
2019-01-23T06:19:00.184Z,0.92
2019-01-23T06:21:26.062Z,1.10
2019-01-23T06:23:52.049Z,1.14
2019-01-23T06:26:17.958Z,1.03
2019-01-23T06:28:43.821Z,0.99
2019-01-23T06:31:13.558Z,0.92
2019-01-23T06:33:39.530Z,0.99
2019-01-23T06:36:05.466Z,1.01
2019-01-23T06:38:31.369Z,1.05
2019-01-23T06:40:57.317Z,0.95
2019-01-23T06:43:23.321Z,0.94
2019-01-23T06:45:49.308Z,0.93
2019-01-23T06:48:15.230Z,0.91
2019-01-23T06:50:41.116Z,0.90
2019-01-23T06:53:13.808Z,0.90
2019-01-23T06:55:35.170Z,1.03
2019-01-23T06:58:01.024Z,1.04
2019-01-23T07:00:26.959Z,1.23
2019-01-23T07:02:53.023Z,1.21
2019-01-23T07:05:19.231Z,1.20
2019-01-23T07:07:45.188Z,1.17
2019-01-23T07:10:15.219Z,1.20
2019-01-23T07:12:41.163Z,1.22
2019-01-23T07:15:09.468Z,1.20
2019-01-23T07:17:35.406Z,1.29
2019-01-23T07:20:01.331Z,1.24
2019-01-23T07:22:27.219Z,1.40
2019-01-23T07:24:53.208Z,1.20
2019-01-23T07:27:19.222Z,1.39
2019-01-23T07:29:45.114Z,1.33
2019-01-23T07:32:11.196Z,1.32
2019-01-23T07:34:37.230Z,1.23
2019-01-23T07:37:03.112Z,1.31
2019-01-23T07:39:28.978Z,1.44
2019-01-23T07:41:54.852Z,1.53
2019-01-23T07:44:20.718Z,1.44
2019-01-23T07:46:46.604Z,1.33
2019-01-23T07:49:12.566Z,1.33
2019-01-23T07:51:38.431Z,1.37
2019-01-23T07:54:04.372Z,1.38
2019-01-23T07:56:30.233Z,1.46
2019-01-23T07:58:57.996Z,1.35
2019-01-23T08:01:27.747Z,1.52
2019-01-23T08:03:53.606Z,1.43
2019-01-23T08:06:19.466Z,1.49
2019-01-23T08:08:45.385Z,1.69
2019-01-23T08:11:11.258Z,1.70
2019-01-23T08:13:37.107Z,1.59
2019-01-23T08:16:03.027Z,1.71
2019-01-23T08:18:28.911Z,1.70
2019-01-23T08:20:54.762Z,1.63
2019-01-23T08:23:20.684Z,1.59
2019-01-23T08:25:46.603Z,1.73
2019-01-23T08:28:12.454Z,1.74
2019-01-23T08:30:40.749Z,1.69
2019-01-23T08:33:10.028Z,1.70
2019-01-23T08:35:35.882Z,1.80
2019-01-23T08:38:01.857Z,1.99
2019-01-23T08:40:27.743Z,2.01
2019-01-23T08:42:53.616Z,2.03
2019-01-23T08:45:19.623Z,2.06
2019-01-23T08:47:45.488Z,2.00
2019-01-23T08:50:29.955Z,2.00
2019-01-23T08:52:55.871Z,2.19
2019-01-23T08:55:22.938Z,2.19
2019-01-23T08:57:49.167Z,2.30
2019-01-23T09:00:16.033Z,2.39
2019-01-23T09:02:41.905Z,2.21
2019-01-23T09:05:08.286Z,2.16
2019-01-23T09:07:34.183Z,2.27
2019-01-23T09:10:00.274Z,2.23
2019-01-23T09:12:26.265Z,2.34
2019-01-23T09:14:52.237Z,2.34
2019-01-23T09:17:18.261Z,2.47
2019-01-23T09:19:44.157Z,2.39
2019-01-23T09:22:10.054Z,2.57
2019-01-23T09:24:35.935Z,2.96
2019-01-23T09:27:01.845Z,2.75
2019-01-23T09:29:27.728Z,2.64
2019-01-23T09:32:15.685Z,2.79
2019-01-23T09:35:12.516Z,2.60
2019-01-23T09:37:45.060Z,2.68
2019-01-23T09:40:23.547Z,2.69
2019-01-23T09:43:02.392Z,2.81
2019-01-23T09:45:32.099Z,2.85
2019-01-23T09:48:14.017Z,2.85
2019-01-23T09:51:06.847Z,3.04
2019-01-23T09:53:36.531Z,2.85
2019-01-23T09:56:02.685Z,2.58
2019-01-23T09:58:28.542Z,2.62
2019-01-23T10:00:59.758Z,2.92
2019-01-23T10:03:23.099Z,2.91
2019-01-23T10:05:49.634Z,2.71
2019-01-23T10:08:15.554Z,3.29
2019-01-23T10:10:41.408Z,3.55
2019-01-23T10:13:07.415Z,3.28
2019-01-23T10:15:37.107Z,3.56
2019-01-23T10:18:02.966Z,3.68
2019-01-23T10:20:28.900Z,3.88
2019-01-23T10:22:54.869Z,4.04
2019-01-23T10:25:20.859Z,3.75
2019-01-23T10:27:46.774Z,4.21
2019-01-23T10:30:13.526Z,4.53
2019-01-23T10:32:39.467Z,4.61
2019-01-23T10:35:08.908Z,4.93
2019-01-23T10:37:34.769Z,4.77
2019-01-23T10:40:00.669Z,4.80
2019-01-23T10:42:26.553Z,4.70
2019-01-23T10:44:52.436Z,5.01
2019-01-23T10:47:18.316Z,4.21
2019-01-23T10:49:44.186Z,4.60
2019-01-23T10:52:10.075Z,5.32
2019-01-23T10:54:35.987Z,5.17
2019-01-23T10:57:01.870Z,4.48
2019-01-23T10:59:27.734Z,4.33
2019-01-23T11:01:53.871Z,5.01
2019-01-23T11:04:19.984Z,4.73
2019-01-23T11:06:45.900Z,4.40
2019-01-23T11:09:11.831Z,4.58
2019-01-23T11:11:37.785Z,4.55
2019-01-23T11:14:03.664Z,4.61
2019-01-23T11:16:29.548Z,4.36
2019-01-23T11:18:55.420Z,4.90
2019-01-23T11:21:21.355Z,4.43
2019-01-23T11:23:47.249Z,4.17
2019-01-23T11:26:13.150Z,4.15
2019-01-23T11:28:38.978Z,4.12
2019-01-23T11:31:04.849Z,4.15
2019-01-23T11:33:30.748Z,4.84
2019-01-23T11:35:56.643Z,4.65
2019-01-23T11:38:22.592Z,4.79
2019-01-23T11:40:48.449Z,4.89
2019-01-23T11:43:14.328Z,5.20
2019-01-23T11:45:40.208Z,4.51
2019-01-23T11:48:06.124Z,4.97
2019-01-23T11:50:31.984Z,5.09
2019-01-23T11:52:57.833Z,4.77
2019-01-23T11:55:23.775Z,5.05
2019-01-23T11:57:49.644Z,5.29
2019-01-23T12:00:19.329Z,4.44
2019-01-23T12:02:45.250Z,4.40
2019-01-23T12:05:13.241Z,4.61
2019-01-23T12:07:39.106Z,4.73
2019-01-23T12:10:08.804Z,4.79
2019-01-23T12:12:34.678Z,4.99
2019-01-23T12:15:00.608Z,4.80
2019-01-23T12:17:26.564Z,4.93
2019-01-23T12:19:52.433Z,5.43
2019-01-23T12:22:18.321Z,4.92
2019-01-23T12:24:44.229Z,5.36
2019-01-23T12:27:10.183Z,4.73
2019-01-23T12:29:36.037Z,5.34
2019-01-23T12:32:01.908Z,5.28
2019-01-23T12:34:27.792Z,5.55
2019-01-23T12:36:53.684Z,5.25
2019-01-23T12:39:23.708Z,4.96
2019-01-23T12:41:49.572Z,5.31
2019-01-23T12:44:15.456Z,5.17
2019-01-23T12:46:41.393Z,4.93
2019-01-23T12:49:07.319Z,5.17
2019-01-23T12:51:33.234Z,5.56
2019-01-23T12:53:59.135Z,5.79
2019-01-23T12:56:25.001Z,5.81
2019-01-23T12:58:50.998Z,5.94
2019-01-23T13:01:16.946Z,6.12
2019-01-23T13:03:42.905Z,5.75
2019-01-23T13:06:08.829Z,6.27
2019-01-23T13:08:34.830Z,6.93
2019-01-23T13:11:00.717Z,7.00
2019-01-23T13:13:26.661Z,7.22
2019-01-23T13:15:52.527Z,6.73
2019-01-23T13:18:18.516Z,6.93
2019-01-23T13:20:44.396Z,7.53
2019-01-23T13:23:10.305Z,7.19
2019-01-23T13:25:36.205Z,6.55
2019-01-23T13:28:02.199Z,6.16
2019-01-23T13:30:28.090Z,5.69
2019-01-23T13:32:53.952Z,5.94
2019-01-23T13:35:32.061Z,6.15
2019-01-23T13:37:58.332Z,6.15
2019-01-23T13:40:30.556Z,6.09
2019-01-23T13:42:56.515Z,6.07
2019-01-23T13:45:22.372Z,5.67
2019-01-23T13:47:48.251Z,5.80
2019-01-23T13:50:14.256Z,5.91
2019-01-23T13:52:40.105Z,5.97
2019-01-23T13:55:09.384Z,5.67
2019-01-23T13:57:35.334Z,6.00
2019-01-23T14:00:02.113Z,6.09
2019-01-23T14:02:27.971Z,6.41
2019-01-23T14:04:53.916Z,6.05
2019-01-23T14:07:19.794Z,5.40
2019-01-23T14:09:45.635Z,5.13
2019-01-23T14:12:11.566Z,5.53
2019-01-23T14:14:37.516Z,5.66
2019-01-23T14:17:03.373Z,5.60
2019-01-23T14:19:29.248Z,5.53
2019-01-23T14:21:55.338Z,5.23
2019-01-23T14:24:21.494Z,5.30
2019-01-23T14:26:47.357Z,5.45
2019-01-23T14:29:13.228Z,5.30
2019-01-23T14:31:39.129Z,5.15
2019-01-23T14:34:05.228Z,5.14
2019-01-23T14:36:31.102Z,4.57
2019-01-23T14:38:56.963Z,4.65
2019-01-23T14:41:22.963Z,4.82
2019-01-23T14:43:48.819Z,4.83
2019-01-23T14:46:14.703Z,4.66
2019-01-23T14:48:40.589Z,4.34
2019-01-23T14:51:06.459Z,4.45
2019-01-23T14:53:32.369Z,4.57
2019-01-23T14:55:58.237Z,4.56
2019-01-23T14:58:24.100Z,4.27
2019-01-23T15:00:50.030Z,4.44
2019-01-23T15:03:15.927Z,4.15
2019-01-23T15:05:41.782Z,4.23
2019-01-23T15:08:07.737Z,4.27
2019-01-23T15:10:33.587Z,4.13
2019-01-23T15:12:59.449Z,4.26
2019-01-23T15:15:25.350Z,4.21
2019-01-23T15:17:51.997Z,4.13
2019-01-23T15:20:22.965Z,4.17
2019-01-23T15:22:48.869Z,4.02
2019-01-23T15:25:14.747Z,4.04
2019-01-23T15:27:40.604Z,4.05
2019-01-23T15:30:10.346Z,4.03
2019-01-23T15:32:36.232Z,3.85
2019-01-23T15:35:04.625Z,3.84
2019-01-23T15:37:30.512Z,3.73
2019-01-23T15:39:56.469Z,3.80
2019-01-23T15:42:26.303Z,3.70
2019-01-23T15:44:52.185Z,3.69
2019-01-23T15:47:18.129Z,3.66
2019-01-23T15:49:44.027Z,3.62
2019-01-23T15:52:09.965Z,3.59
2019-01-23T15:54:36.012Z,3.60
2019-01-23T15:57:01.868Z,3.48
2019-01-23T15:59:27.741Z,3.59
2019-01-23T16:01:53.732Z,3.45
2019-01-23T16:04:19.654Z,3.52
2019-01-23T16:06:45.663Z,3.32
2019-01-23T16:09:11.568Z,3.46
2019-01-23T16:11:37.583Z,3.46
2019-01-23T16:14:03.528Z,3.40
2019-01-23T16:16:29.460Z,3.50
2019-01-23T16:18:55.383Z,3.48
2019-01-23T16:21:21.388Z,3.49
2019-01-23T16:23:47.270Z,3.52
2019-01-23T16:26:13.306Z,3.35
2019-01-23T16:28:39.236Z,3.25
2019-01-23T16:31:05.110Z,3.25
2019-01-23T16:33:30.988Z,3.09
2019-01-23T16:35:56.978Z,3.07
2019-01-23T16:38:22.883Z,2.88
2019-01-23T16:40:48.814Z,2.95
2019-01-23T16:43:14.705Z,2.66
2019-01-23T16:45:40.588Z,2.66
2019-01-23T16:48:06.485Z,2.66
2019-01-23T16:50:32.364Z,2.75
2019-01-23T16:52:58.247Z,2.88
2019-01-23T16:55:24.137Z,2.85
2019-01-23T16:57:50.576Z,2.85
2019-01-23T17:00:18.633Z,2.86
2019-01-23T17:02:44.503Z,2.75
2019-01-23T17:05:19.221Z,2.70
2019-01-23T17:07:45.113Z,2.62
2019-01-23T17:10:16.459Z,2.68
2019-01-23T17:12:42.447Z,2.55
2019-01-23T17:15:09.650Z,2.55
2019-01-23T17:17:35.510Z,2.73
2019-01-23T17:20:01.416Z,2.70
2019-01-23T17:22:27.292Z,2.72
2019-01-23T17:24:53.165Z,2.76
2019-01-23T17:27:19.093Z,2.84
2019-01-23T17:29:44.968Z,2.69
2019-01-23T17:32:10.934Z,2.70
2019-01-23T17:34:36.860Z,2.59
2019-01-23T17:37:02.751Z,2.69
2019-01-23T17:39:28.648Z,2.64
2019-01-23T17:41:54.918Z,2.58
2019-01-23T17:44:20.890Z,2.51
2019-01-23T17:46:47.075Z,2.66
2019-01-23T17:49:13.311Z,2.43
2019-01-23T17:51:39.652Z,2.51
2019-01-23T17:54:05.513Z,2.48
2019-01-23T17:56:31.377Z,2.30
2019-01-23T17:58:57.473Z,2.34
2019-01-23T18:01:23.450Z,2.34
2019-01-23T18:03:49.308Z,2.38
2019-01-23T18:06:15.247Z,2.20
2019-01-23T18:08:41.225Z,2.23
2019-01-23T18:11:07.107Z,2.08
2019-01-23T18:13:32.984Z,2.04
2019-01-23T18:16:00.972Z,2.12
2019-01-23T18:18:26.851Z,2.10
2019-01-23T18:20:52.725Z,2.00
2019-01-23T18:23:18.651Z,2.00
2019-01-23T18:25:44.548Z,2.10
2019-01-23T18:28:10.467Z,2.08
2019-01-23T18:30:46.174Z,2.00
2019-01-23T18:33:15.868Z,1.90
2019-01-23T18:36:00.837Z,1.84
2019-01-23T18:38:39.405Z,1.86
2019-01-23T18:41:18.196Z,2.03
2019-01-23T18:43:56.869Z,1.70
2019-01-23T18:46:58.943Z,1.87
2019-01-23T18:49:51.671Z,1.80
2019-01-23T18:52:17.692Z,1.93
2019-01-23T18:54:43.614Z,1.90
2019-01-23T18:57:21.940Z,1.89
2019-01-23T18:59:47.798Z,1.93
2019-01-23T19:02:13.660Z,2.02
2019-01-23T19:04:39.637Z,2.04
2019-01-23T19:07:05.495Z,1.97
2019-01-23T19:09:31.604Z,1.90
2019-01-23T19:11:57.469Z,1.91
2019-01-23T19:14:24.606Z,1.93
2019-01-23T19:16:50.636Z,2.08
2019-01-23T19:19:16.644Z,1.86
2019-01-23T19:21:42.492Z,1.78
2019-01-23T19:24:08.365Z,1.66
2019-01-23T19:26:34.341Z,1.60
2019-01-23T19:29:00.245Z,1.48
2019-01-23T19:31:26.255Z,1.52
2019-01-23T19:33:52.256Z,1.80
2019-01-23T19:36:18.218Z,1.77
2019-01-23T19:38:44.965Z,1.60
2019-01-23T19:41:10.896Z,1.61
2019-01-23T19:43:36.822Z,1.74
2019-01-23T19:46:02.705Z,1.63
2019-01-23T19:48:31.475Z,1.51
2019-01-23T19:50:57.417Z,1.82
2019-01-23T19:53:23.314Z,1.65
2019-01-23T19:55:49.204Z,1.63
2019-01-23T19:58:15.184Z,1.81
2019-01-23T20:00:41.105Z,1.81
2019-01-23T20:03:07.073Z,1.74
2019-01-23T20:05:34.505Z,1.60
2019-01-23T20:08:00.454Z,1.58
2019-01-23T20:10:26.380Z,1.60
2019-01-23T20:12:52.828Z,1.61
2019-01-23T20:15:20.156Z,1.65
2019-01-23T20:17:48.016Z,1.53
2019-01-23T20:20:14.561Z,1.58
2019-01-23T20:22:40.629Z,1.40
2019-01-23T20:25:09.909Z,1.48
2019-01-23T20:27:35.912Z,1.63
2019-01-23T20:30:04.113Z,1.60
2019-01-23T20:32:30.022Z,1.72
2019-01-23T20:34:55.917Z,1.69
2019-01-23T20:37:24.952Z,1.66
2019-01-23T20:39:50.838Z,1.56
2019-01-23T20:42:16.735Z,1.75
2019-01-23T20:44:42.756Z,1.76
2019-01-23T20:47:08.678Z,1.62
2019-01-23T20:49:34.575Z,1.47
2019-01-23T20:52:00.485Z,1.46
2019-01-23T20:54:26.361Z,1.44
2019-01-23T20:56:52.305Z,1.48
2019-01-23T20:59:18.192Z,1.50
2019-01-23T21:01:44.155Z,1.52
2019-01-23T21:04:10.062Z,1.45
2019-01-23T21:06:35.955Z,1.40
2019-01-23T21:09:02.191Z,1.50
2019-01-23T21:11:28.043Z,1.46
2019-01-23T21:13:53.911Z,1.51
2019-01-23T21:16:19.785Z,1.49
2019-01-23T21:18:45.667Z,1.52
2019-01-23T21:21:11.745Z,1.40
2019-01-23T21:23:37.622Z,1.24
2019-01-23T21:26:03.484Z,1.37
2019-01-23T21:28:29.411Z,1.50
2019-01-23T21:30:55.318Z,1.59
2019-01-23T21:33:21.182Z,1.66
2019-01-23T21:35:47.094Z,1.70
2019-01-23T21:38:12.939Z,1.38
2019-01-23T21:40:39.223Z,1.31
2019-01-23T21:43:05.150Z,1.14
2019-01-23T21:45:31.000Z,1.38
2019-01-23T21:47:57.836Z,1.48
2019-01-23T21:50:27.359Z,1.45
2019-01-23T21:52:53.220Z,1.66
2019-01-23T21:55:20.872Z,1.65
2019-01-23T21:57:46.737Z,1.51
2019-01-23T22:00:30.744Z,1.55
2019-01-23T22:02:58.589Z,1.60
2019-01-23T22:05:24.493Z,1.52
2019-01-23T22:07:50.361Z,1.50
2019-01-23T22:10:16.230Z,1.47
2019-01-23T22:12:42.224Z,1.44
2019-01-23T22:15:16.908Z,1.48
2019-01-23T22:17:42.805Z,1.48
2019-01-23T22:20:17.131Z,1.43
2019-01-23T22:22:43.007Z,1.62
2019-01-23T22:25:10.573Z,1.59
2019-01-23T22:27:36.456Z,1.59
2019-01-23T22:30:05.852Z,1.60
2019-01-23T22:32:31.913Z,1.66
2019-01-23T22:34:57.776Z,1.61
2019-01-23T22:37:23.665Z,1.39
2019-01-23T22:39:49.568Z,1.44
2019-01-23T22:42:15.483Z,1.64
2019-01-23T22:44:41.391Z,1.42
2019-01-23T22:47:07.274Z,1.18
2019-01-23T22:49:33.110Z,1.30
2019-01-23T22:51:59.067Z,1.32
2019-01-23T22:54:24.966Z,1.42
2019-01-23T22:56:50.836Z,1.45
2019-01-23T22:59:16.717Z,1.53
2019-01-23T23:01:42.759Z,1.47
2019-01-23T23:04:08.643Z,1.40
2019-01-23T23:06:34.507Z,1.42
2019-01-23T23:09:00.878Z,1.39
2019-01-23T23:11:26.800Z,1.43
2019-01-23T23:13:52.802Z,1.50
2019-01-23T23:16:18.769Z,1.45
2019-01-23T23:18:44.652Z,1.45
2019-01-23T23:21:10.585Z,1.42
2019-01-23T23:23:36.465Z,1.51
2019-01-23T23:26:02.322Z,1.32
2019-01-23T23:28:28.240Z,1.08
2019-01-23T23:30:54.240Z,1.16
2019-01-23T23:33:20.144Z,1.26
2019-01-23T23:35:46.059Z,1.26
2019-01-23T23:38:11.940Z,1.19
2019-01-23T23:40:37.778Z,1.49
2019-01-23T23:43:03.700Z,1.51
2019-01-23T23:45:29.673Z,1.54
2019-01-23T23:47:55.553Z,1.49
2019-01-23T23:50:21.451Z,1.35
2019-01-23T23:52:50.647Z,1.36
2019-01-23T23:55:16.507Z,1.34
2019-01-23T23:57:42.490Z,1.25
